sensor_id;sensor_type;location;lat;lon;timestamp;P1;durP1;ratioP1;P2;durP2;ratioP2
17943;SDS011;9097;47.028;15.444;2022-10-16T00:00:33;35.50;;;16.13;;
17943;SDS011;9097;47.028;15.444;2022-10-16T00:03:36;23.67;;;13.13;;
17943;SDS011;9097;47.028;15.444;2022-10-16T00:06:41;30.00;;;15.70;;
17943;SDS011;9097;47.028;15.444;2022-10-16T00:09:45;25.93;;;13.20;;
17943;SDS011;9097;47.028;15.444;2022-10-16T00:12:48;26.47;;;13.33;;
17943;SDS011;9097;47.028;15.444;2022-10-16T00:15:54;25.00;;;12.50;;
17943;SDS011;9097;47.028;15.444;2022-10-16T00:18:57;26.20;;;12.10;;
17943;SDS011;9097;47.028;15.444;2022-10-16T00:22:01;19.90;;;12.20;;
17943;SDS011;9097;47.028;15.444;2022-10-16T00:25:05;21.97;;;12.23;;
17943;SDS011;9097;47.028;15.444;2022-10-16T00:28:08;28.70;;;12.90;;
17943;SDS011;9097;47.028;15.444;2022-10-16T00:31:11;23.73;;;11.87;;
17943;SDS011;9097;47.028;15.444;2022-10-16T00:34:14;24.10;;;12.23;;
17943;SDS011;9097;47.028;15.444;2022-10-16T00:37:17;26.63;;;14.97;;
17943;SDS011;9097;47.028;15.444;2022-10-16T00:40:21;24.27;;;13.43;;
17943;SDS011;9097;47.028;15.444;2022-10-16T00:43:34;20.97;;;10.93;;
17943;SDS011;9097;47.028;15.444;2022-10-16T00:46:38;24.20;;;12.07;;
17943;SDS011;9097;47.028;15.444;2022-10-16T00:49:41;31.57;;;15.53;;
17943;SDS011;9097;47.028;15.444;2022-10-16T00:52:45;21.33;;;11.93;;
17943;SDS011;9097;47.028;15.444;2022-10-16T00:55:50;25.60;;;11.83;;
17943;SDS011;9097;47.028;15.444;2022-10-16T00:58:52;27.77;;;14.43;;
17943;SDS011;9097;47.028;15.444;2022-10-16T01:01:55;24.40;;;12.50;;
17943;SDS011;9097;47.028;15.444;2022-10-16T01:04:58;20.17;;;11.47;;
17943;SDS011;9097;47.028;15.444;2022-10-16T01:08:03;26.27;;;13.63;;
17943;SDS011;9097;47.028;15.444;2022-10-16T01:11:10;22.77;;;10.97;;
17943;SDS011;9097;47.028;15.444;2022-10-16T01:14:15;21.37;;;11.93;;
17943;SDS011;9097;47.028;15.444;2022-10-16T01:17:22;20.30;;;12.50;;
17943;SDS011;9097;47.028;15.444;2022-10-16T01:20:26;22.87;;;11.27;;
17943;SDS011;9097;47.028;15.444;2022-10-16T01:23:35;25.67;;;11.73;;
17943;SDS011;9097;47.028;15.444;2022-10-16T01:26:46;20.73;;;11.53;;
17943;SDS011;9097;47.028;15.444;2022-10-16T01:29:54;20.50;;;11.03;;
17943;SDS011;9097;47.028;15.444;2022-10-16T01:32:59;19.80;;;11.87;;
17943;SDS011;9097;47.028;15.444;2022-10-16T01:36:05;23.37;;;11.33;;
17943;SDS011;9097;47.028;15.444;2022-10-16T01:39:10;27.10;;;12.07;;
17943;SDS011;9097;47.028;15.444;2022-10-16T01:42:14;28.40;;;13.17;;
17943;SDS011;9097;47.028;15.444;2022-10-16T01:45:20;26.13;;;13.50;;
17943;SDS011;9097;47.028;15.444;2022-10-16T01:48:23;27.90;;;11.43;;
17943;SDS011;9097;47.028;15.444;2022-10-16T01:51:26;27.30;;;12.47;;
17943;SDS011;9097;47.028;15.444;2022-10-16T01:54:30;28.43;;;12.43;;
17943;SDS011;9097;47.028;15.444;2022-10-16T01:57:34;27.27;;;12.80;;
17943;SDS011;9097;47.028;15.444;2022-10-16T02:00:40;26.73;;;13.27;;
17943;SDS011;9097;47.028;15.444;2022-10-16T02:03:44;26.27;;;14.47;;
17943;SDS011;9097;47.028;15.444;2022-10-16T02:06:49;29.30;;;14.40;;
17943;SDS011;9097;47.028;15.444;2022-10-16T02:09:52;34.97;;;14.57;;
17943;SDS011;9097;47.028;15.444;2022-10-16T02:12:55;28.87;;;13.03;;
17943;SDS011;9097;47.028;15.444;2022-10-16T02:16:01;28.43;;;12.37;;
17943;SDS011;9097;47.028;15.444;2022-10-16T02:19:04;27.47;;;12.57;;
17943;SDS011;9097;47.028;15.444;2022-10-16T02:22:08;27.57;;;15.10;;
17943;SDS011;9097;47.028;15.444;2022-10-16T02:25:13;24.57;;;13.30;;
17943;SDS011;9097;47.028;15.444;2022-10-16T02:28:19;19.83;;;11.50;;
17943;SDS011;9097;47.028;15.444;2022-10-16T02:31:27;24.43;;;12.30;;
17943;SDS011;9097;47.028;15.444;2022-10-16T02:34:30;22.87;;;12.17;;
17943;SDS011;9097;47.028;15.444;2022-10-16T02:37:34;25.57;;;12.57;;
17943;SDS011;9097;47.028;15.444;2022-10-16T02:40:37;19.20;;;10.10;;
17943;SDS011;9097;47.028;15.444;2022-10-16T02:43:41;22.80;;;11.40;;
17943;SDS011;9097;47.028;15.444;2022-10-16T02:46:45;36.37;;;14.67;;
17943;SDS011;9097;47.028;15.444;2022-10-16T02:49:48;27.93;;;14.00;;
17943;SDS011;9097;47.028;15.444;2022-10-16T02:52:51;27.67;;;12.07;;
17943;SDS011;9097;47.028;15.444;2022-10-16T02:55:54;25.27;;;12.97;;
17943;SDS011;9097;47.028;15.444;2022-10-16T02:58:57;25.33;;;12.10;;
17943;SDS011;9097;47.028;15.444;2022-10-16T03:02:01;23.07;;;11.73;;
17943;SDS011;9097;47.028;15.444;2022-10-16T03:05:04;23.30;;;13.23;;
17943;SDS011;9097;47.028;15.444;2022-10-16T03:08:07;24.13;;;13.50;;
17943;SDS011;9097;47.028;15.444;2022-10-16T03:11:12;26.37;;;12.43;;
17943;SDS011;9097;47.028;15.444;2022-10-16T03:14:15;27.07;;;13.10;;
17943;SDS011;9097;47.028;15.444;2022-10-16T03:17:19;20.67;;;10.90;;
17943;SDS011;9097;47.028;15.444;2022-10-16T03:20:22;23.67;;;12.67;;
17943;SDS011;9097;47.028;15.444;2022-10-16T03:23:24;27.73;;;11.67;;
17943;SDS011;9097;47.028;15.444;2022-10-16T03:26:27;21.07;;;11.03;;
17943;SDS011;9097;47.028;15.444;2022-10-16T03:29:30;17.93;;;11.20;;
17943;SDS011;9097;47.028;15.444;2022-10-16T03:32:34;26.93;;;11.83;;
17943;SDS011;9097;47.028;15.444;2022-10-16T03:35:37;24.40;;;11.97;;
17943;SDS011;9097;47.028;15.444;2022-10-16T03:38:40;19.57;;;10.60;;
17943;SDS011;9097;47.028;15.444;2022-10-16T03:41:43;21.67;;;11.30;;
17943;SDS011;9097;47.028;15.444;2022-10-16T03:44:47;19.17;;;10.53;;
17943;SDS011;9097;47.028;15.444;2022-10-16T03:47:51;22.47;;;12.93;;
17943;SDS011;9097;47.028;15.444;2022-10-16T03:50:54;20.70;;;10.73;;
17943;SDS011;9097;47.028;15.444;2022-10-16T03:53:57;18.43;;;10.50;;
17943;SDS011;9097;47.028;15.444;2022-10-16T03:57:00;20.53;;;10.47;;
17943;SDS011;9097;47.028;15.444;2022-10-16T04:00:05;16.57;;;9.77;;
17943;SDS011;9097;47.028;15.444;2022-10-16T04:03:09;19.23;;;9.43;;
17943;SDS011;9097;47.028;15.444;2022-10-16T04:06:12;27.37;;;10.37;;
17943;SDS011;9097;47.028;15.444;2022-10-16T04:09:15;24.03;;;11.67;;
17943;SDS011;9097;47.028;15.444;2022-10-16T04:12:18;19.87;;;10.67;;
17943;SDS011;9097;47.028;15.444;2022-10-16T04:15:20;21.50;;;10.17;;
17943;SDS011;9097;47.028;15.444;2022-10-16T04:18:25;22.10;;;11.97;;
17943;SDS011;9097;47.028;15.444;2022-10-16T04:21:28;21.57;;;10.43;;
17943;SDS011;9097;47.028;15.444;2022-10-16T04:24:31;20.87;;;10.00;;
17943;SDS011;9097;47.028;15.444;2022-10-16T04:27:33;24.27;;;11.57;;
17943;SDS011;9097;47.028;15.444;2022-10-16T04:30:37;22.30;;;10.13;;
17943;SDS011;9097;47.028;15.444;2022-10-16T04:33:43;23.63;;;11.17;;
17943;SDS011;9097;47.028;15.444;2022-10-16T04:36:46;21.53;;;11.30;;
17943;SDS011;9097;47.028;15.444;2022-10-16T04:39:50;22.33;;;10.37;;
17943;SDS011;9097;47.028;15.444;2022-10-16T04:42:52;24.23;;;11.57;;
17943;SDS011;9097;47.028;15.444;2022-10-16T04:45:55;21.60;;;12.37;;
17943;SDS011;9097;47.028;15.444;2022-10-16T04:49:00;21.77;;;10.90;;
17943;SDS011;9097;47.028;15.444;2022-10-16T04:52:02;21.50;;;12.10;;
17943;SDS011;9097;47.028;15.444;2022-10-16T04:55:06;18.37;;;10.40;;
17943;SDS011;9097;47.028;15.444;2022-10-16T04:58:09;21.23;;;10.63;;
17943;SDS011;9097;47.028;15.444;2022-10-16T05:01:11;28.23;;;12.50;;
17943;SDS011;9097;47.028;15.444;2022-10-16T05:04:15;21.80;;;11.27;;
17943;SDS011;9097;47.028;15.444;2022-10-16T05:07:18;22.53;;;10.63;;
17943;SDS011;9097;47.028;15.444;2022-10-16T05:10:22;19.60;;;11.13;;
17943;SDS011;9097;47.028;15.444;2022-10-16T05:13:24;23.53;;;11.23;;
17943;SDS011;9097;47.028;15.444;2022-10-16T05:16:27;25.20;;;11.87;;
17943;SDS011;9097;47.028;15.444;2022-10-16T05:19:32;19.07;;;10.03;;
17943;SDS011;9097;47.028;15.444;2022-10-16T05:22:34;20.77;;;12.37;;
17943;SDS011;9097;47.028;15.444;2022-10-16T05:25:38;25.50;;;12.93;;
17943;SDS011;9097;47.028;15.444;2022-10-16T05:28:42;21.33;;;10.57;;
17943;SDS011;9097;47.028;15.444;2022-10-16T05:31:44;22.03;;;11.87;;
17943;SDS011;9097;47.028;15.444;2022-10-16T05:34:50;23.00;;;11.90;;
17943;SDS011;9097;47.028;15.444;2022-10-16T05:37:52;18.47;;;10.10;;
17943;SDS011;9097;47.028;15.444;2022-10-16T05:40:56;19.37;;;10.57;;
17943;SDS011;9097;47.028;15.444;2022-10-16T05:43:58;22.00;;;12.00;;
17943;SDS011;9097;47.028;15.444;2022-10-16T05:47:01;25.47;;;11.57;;
17943;SDS011;9097;47.028;15.444;2022-10-16T05:50:06;19.60;;;11.90;;
17943;SDS011;9097;47.028;15.444;2022-10-16T05:53:09;19.77;;;10.73;;
17943;SDS011;9097;47.028;15.444;2022-10-16T05:56:12;25.00;;;11.10;;
17943;SDS011;9097;47.028;15.444;2022-10-16T05:59:15;18.13;;;10.53;;
17943;SDS011;9097;47.028;15.444;2022-10-16T06:02:18;19.20;;;10.50;;
17943;SDS011;9097;47.028;15.444;2022-10-16T06:05:22;20.73;;;10.30;;
17943;SDS011;9097;47.028;15.444;2022-10-16T06:08:25;24.33;;;11.60;;
17943;SDS011;9097;47.028;15.444;2022-10-16T06:11:28;19.60;;;10.63;;
17943;SDS011;9097;47.028;15.444;2022-10-16T06:14:32;17.83;;;10.17;;
17943;SDS011;9097;47.028;15.444;2022-10-16T06:17:34;21.60;;;11.27;;
17943;SDS011;9097;47.028;15.444;2022-10-16T06:20:38;21.60;;;11.13;;
17943;SDS011;9097;47.028;15.444;2022-10-16T06:23:41;19.90;;;11.70;;
17943;SDS011;9097;47.028;15.444;2022-10-16T06:26:46;24.07;;;12.53;;
17943;SDS011;9097;47.028;15.444;2022-10-16T06:29:48;17.43;;;9.83;;
17943;SDS011;9097;47.028;15.444;2022-10-16T06:32:51;20.37;;;10.53;;
17943;SDS011;9097;47.028;15.444;2022-10-16T06:36:01;17.00;;;9.53;;
17943;SDS011;9097;47.028;15.444;2022-10-16T06:39:04;17.03;;;9.73;;
17943;SDS011;9097;47.028;15.444;2022-10-16T06:42:08;18.03;;;9.83;;
17943;SDS011;9097;47.028;15.444;2022-10-16T06:45:11;17.43;;;10.83;;
17943;SDS011;9097;47.028;15.444;2022-10-16T06:48:14;16.63;;;9.40;;
17943;SDS011;9097;47.028;15.444;2022-10-16T06:51:22;18.30;;;10.80;;
17943;SDS011;9097;47.028;15.444;2022-10-16T06:54:25;19.10;;;10.70;;
17943;SDS011;9097;47.028;15.444;2022-10-16T06:57:28;20.53;;;11.20;;
17943;SDS011;9097;47.028;15.444;2022-10-16T07:00:31;18.10;;;9.13;;
17943;SDS011;9097;47.028;15.444;2022-10-16T07:03:35;17.43;;;9.43;;
17943;SDS011;9097;47.028;15.444;2022-10-16T07:06:40;16.73;;;9.53;;
17943;SDS011;9097;47.028;15.444;2022-10-16T07:09:43;14.93;;;8.40;;
17943;SDS011;9097;47.028;15.444;2022-10-16T07:12:46;15.30;;;8.37;;
17943;SDS011;9097;47.028;15.444;2022-10-16T07:15:52;15.60;;;9.17;;
17943;SDS011;9097;47.028;15.444;2022-10-16T07:18:57;23.30;;;11.07;;
17943;SDS011;9097;47.028;15.444;2022-10-16T07:22:02;19.27;;;10.03;;
17943;SDS011;9097;47.028;15.444;2022-10-16T07:25:05;22.80;;;10.23;;
17943;SDS011;9097;47.028;15.444;2022-10-16T07:28:08;15.10;;;9.43;;
17943;SDS011;9097;47.028;15.444;2022-10-16T07:31:11;18.93;;;9.57;;
17943;SDS011;9097;47.028;15.444;2022-10-16T07:34:15;16.77;;;10.00;;
17943;SDS011;9097;47.028;15.444;2022-10-16T07:37:19;16.57;;;9.37;;
17943;SDS011;9097;47.028;15.444;2022-10-16T07:40:23;22.03;;;10.60;;
17943;SDS011;9097;47.028;15.444;2022-10-16T07:43:27;14.87;;;9.07;;
17943;SDS011;9097;47.028;15.444;2022-10-16T07:46:30;20.03;;;10.40;;
17943;SDS011;9097;47.028;15.444;2022-10-16T07:49:34;18.73;;;10.33;;
17943;SDS011;9097;47.028;15.444;2022-10-16T07:52:38;20.93;;;8.97;;
17943;SDS011;9097;47.028;15.444;2022-10-16T07:55:41;20.87;;;11.10;;
17943;SDS011;9097;47.028;15.444;2022-10-16T07:58:44;17.47;;;9.27;;
17943;SDS011;9097;47.028;15.444;2022-10-16T08:01:46;19.37;;;9.33;;
17943;SDS011;9097;47.028;15.444;2022-10-16T08:04:50;24.53;;;11.60;;
17943;SDS011;9097;47.028;15.444;2022-10-16T08:07:56;24.50;;;10.93;;
17943;SDS011;9097;47.028;15.444;2022-10-16T08:10:59;21.03;;;10.57;;
17943;SDS011;9097;47.028;15.444;2022-10-16T08:14:04;17.20;;;9.23;;
17943;SDS011;9097;47.028;15.444;2022-10-16T08:17:06;18.37;;;9.80;;
17943;SDS011;9097;47.028;15.444;2022-10-16T08:20:10;14.00;;;9.00;;
17943;SDS011;9097;47.028;15.444;2022-10-16T08:23:15;21.67;;;11.07;;
17943;SDS011;9097;47.028;15.444;2022-10-16T08:26:18;24.03;;;11.40;;
17943;SDS011;9097;47.028;15.444;2022-10-16T08:29:20;22.20;;;11.13;;
17943;SDS011;9097;47.028;15.444;2022-10-16T08:32:23;14.53;;;8.53;;
17943;SDS011;9097;47.028;15.444;2022-10-16T08:35:26;21.07;;;10.83;;
17943;SDS011;9097;47.028;15.444;2022-10-16T08:38:30;23.03;;;11.40;;
17943;SDS011;9097;47.028;15.444;2022-10-16T08:41:41;20.23;;;10.73;;
17943;SDS011;9097;47.028;15.444;2022-10-16T08:44:58;23.13;;;10.57;;
17943;SDS011;9097;47.028;15.444;2022-10-16T08:48:06;22.52;;;11.77;;
17943;SDS011;9097;47.028;15.444;2022-10-16T08:51:11;21.20;;;10.38;;
17943;SDS011;9097;47.028;15.444;2022-10-16T08:54:25;21.27;;;10.60;;
17943;SDS011;9097;47.028;15.444;2022-10-16T08:57:31;20.20;;;10.07;;
17943;SDS011;9097;47.028;15.444;2022-10-16T09:00:35;21.42;;;10.93;;
17943;SDS011;9097;47.028;15.444;2022-10-16T09:03:42;21.73;;;9.38;;
17943;SDS011;9097;47.028;15.444;2022-10-16T09:06:50;22.73;;;10.57;;
17943;SDS011;9097;47.028;15.444;2022-10-16T09:13:26;16.10;;;8.57;;
17943;SDS011;9097;47.028;15.444;2022-10-16T09:16:30;22.95;;;10.35;;
17943;SDS011;9097;47.028;15.444;2022-10-16T09:19:35;19.13;;;9.57;;
17943;SDS011;9097;47.028;15.444;2022-10-16T09:22:40;18.63;;;9.50;;
17943;SDS011;9097;47.028;15.444;2022-10-16T09:25:44;20.92;;;9.90;;
17943;SDS011;9097;47.028;15.444;2022-10-16T09:28:51;19.60;;;9.77;;
17943;SDS011;9097;47.028;15.444;2022-10-16T09:31:54;13.23;;;8.95;;
17943;SDS011;9097;47.028;15.444;2022-10-16T09:34:58;15.48;;;9.30;;
17943;SDS011;9097;47.028;15.444;2022-10-16T09:38:01;15.05;;;8.88;;
17943;SDS011;9097;47.028;15.444;2022-10-16T09:41:14;14.73;;;8.10;;
17943;SDS011;9097;47.028;15.444;2022-10-16T09:44:21;15.38;;;8.57;;
17943;SDS011;9097;47.028;15.444;2022-10-16T09:47:26;14.38;;;8.55;;
17943;SDS011;9097;47.028;15.444;2022-10-16T09:50:30;13.63;;;8.27;;
17943;SDS011;9097;47.028;15.444;2022-10-16T09:53:40;14.35;;;8.50;;
17943;SDS011;9097;47.028;15.444;2022-10-16T09:56:43;14.77;;;7.22;;
17943;SDS011;9097;47.028;15.444;2022-10-16T09:59:51;16.70;;;8.80;;
17943;SDS011;9097;47.028;15.444;2022-10-16T10:02:55;17.73;;;9.25;;
17943;SDS011;9097;47.028;15.444;2022-10-16T10:05:58;12.48;;;7.65;;
17943;SDS011;9097;47.028;15.444;2022-10-16T10:09:04;12.05;;;7.82;;
17943;SDS011;9097;47.028;15.444;2022-10-16T10:12:16;12.77;;;7.88;;
17943;SDS011;9097;47.028;15.444;2022-10-16T10:15:21;11.43;;;7.43;;
17943;SDS011;9097;47.028;15.444;2022-10-16T10:18:24;17.90;;;8.63;;
17943;SDS011;9097;47.028;15.444;2022-10-16T10:21:27;18.33;;;8.55;;
17943;SDS011;9097;47.028;15.444;2022-10-16T10:24:30;16.42;;;9.45;;
17943;SDS011;9097;47.028;15.444;2022-10-16T10:27:35;13.68;;;7.72;;
17943;SDS011;9097;47.028;15.444;2022-10-16T10:30:42;14.57;;;8.15;;
17943;SDS011;9097;47.028;15.444;2022-10-16T10:33:47;15.30;;;8.35;;
17943;SDS011;9097;47.028;15.444;2022-10-16T10:36:52;19.50;;;7.38;;
17943;SDS011;9097;47.028;15.444;2022-10-16T10:39:57;13.38;;;7.70;;
17943;SDS011;9097;47.028;15.444;2022-10-16T10:43:06;11.38;;;7.35;;
17943;SDS011;9097;47.028;15.444;2022-10-16T10:46:16;15.75;;;7.78;;
17943;SDS011;9097;47.028;15.444;2022-10-16T10:49:26;13.23;;;6.97;;
17943;SDS011;9097;47.028;15.444;2022-10-16T10:52:41;12.63;;;7.68;;
17943;SDS011;9097;47.028;15.444;2022-10-16T10:55:45;13.68;;;7.20;;
17943;SDS011;9097;47.028;15.444;2022-10-16T10:59:09;17.08;;;8.10;;
17943;SDS011;9097;47.028;15.444;2022-10-16T11:02:21;18.38;;;8.48;;
17943;SDS011;9097;47.028;15.444;2022-10-16T11:05:36;10.68;;;6.63;;
17943;SDS011;9097;47.028;15.444;2022-10-16T11:08:43;15.02;;;7.85;;
17943;SDS011;9097;47.028;15.444;2022-10-16T11:11:49;13.68;;;7.65;;
17943;SDS011;9097;47.028;15.444;2022-10-16T11:14:54;14.15;;;7.13;;
17943;SDS011;9097;47.028;15.444;2022-10-16T11:18:02;11.70;;;6.53;;
17943;SDS011;9097;47.028;15.444;2022-10-16T11:21:07;12.00;;;7.30;;
17943;SDS011;9097;47.028;15.444;2022-10-16T11:24:13;13.52;;;7.15;;
17943;SDS011;9097;47.028;15.444;2022-10-16T11:27:19;11.90;;;6.13;;
17943;SDS011;9097;47.028;15.444;2022-10-16T11:30:25;10.18;;;6.75;;
17943;SDS011;9097;47.028;15.444;2022-10-16T11:33:31;10.98;;;6.15;;
17943;SDS011;9097;47.028;15.444;2022-10-16T11:36:38;15.27;;;6.15;;
17943;SDS011;9097;47.028;15.444;2022-10-16T11:39:41;14.27;;;7.32;;
17943;SDS011;9097;47.028;15.444;2022-10-16T11:42:48;12.07;;;5.97;;
17943;SDS011;9097;47.028;15.444;2022-10-16T11:45:54;10.60;;;6.40;;
17943;SDS011;9097;47.028;15.444;2022-10-16T11:49:00;9.70;;;5.60;;
17943;SDS011;9097;47.028;15.444;2022-10-16T11:52:06;7.22;;;5.18;;
17943;SDS011;9097;47.028;15.444;2022-10-16T11:55:14;11.27;;;5.55;;
17943;SDS011;9097;47.028;15.444;2022-10-16T11:58:20;11.25;;;6.10;;
17943;SDS011;9097;47.028;15.444;2022-10-16T12:01:27;10.13;;;5.57;;
17943;SDS011;9097;47.028;15.444;2022-10-16T12:04:33;11.60;;;5.45;;
17943;SDS011;9097;47.028;15.444;2022-10-16T12:07:38;9.73;;;5.43;;
17943;SDS011;9097;47.028;15.444;2022-10-16T12:10:45;9.10;;;5.07;;
17943;SDS011;9097;47.028;15.444;2022-10-16T12:13:48;9.75;;;5.40;;
17943;SDS011;9097;47.028;15.444;2022-10-16T12:16:52;10.27;;;5.70;;
17943;SDS011;9097;47.028;15.444;2022-10-16T12:20:12;9.85;;;5.40;;
17943;SDS011;9097;47.028;15.444;2022-10-16T12:23:18;8.32;;;5.22;;
17943;SDS011;9097;47.028;15.444;2022-10-16T12:26:25;8.98;;;5.38;;
17943;SDS011;9097;47.028;15.444;2022-10-16T12:29:31;13.23;;;5.47;;
17943;SDS011;9097;47.028;15.444;2022-10-16T12:32:35;8.85;;;5.10;;
17943;SDS011;9097;47.028;15.444;2022-10-16T12:35:44;13.05;;;6.28;;
17943;SDS011;9097;47.028;15.444;2022-10-16T12:38:47;11.73;;;5.35;;
17943;SDS011;9097;47.028;15.444;2022-10-16T12:42:00;9.40;;;5.28;;
17943;SDS011;9097;47.028;15.444;2022-10-16T12:45:21;8.75;;;5.55;;
17943;SDS011;9097;47.028;15.444;2022-10-16T12:48:26;10.52;;;5.95;;
17943;SDS011;9097;47.028;15.444;2022-10-16T12:51:35;11.00;;;6.82;;
17943;SDS011;9097;47.028;15.444;2022-10-16T12:54:45;11.35;;;6.18;;
17943;SDS011;9097;47.028;15.444;2022-10-16T13:01:11;11.93;;;6.30;;
17943;SDS011;9097;47.028;15.444;2022-10-16T13:07:55;11.25;;;6.00;;
17943;SDS011;9097;47.028;15.444;2022-10-16T13:11:02;9.73;;;6.28;;
17943;SDS011;9097;47.028;15.444;2022-10-16T13:14:13;10.35;;;6.05;;
17943;SDS011;9097;47.028;15.444;2022-10-16T13:17:21;11.35;;;5.97;;
17943;SDS011;9097;47.028;15.444;2022-10-16T13:20:31;10.23;;;6.32;;
17943;SDS011;9097;47.028;15.444;2022-10-16T13:23:39;10.60;;;5.88;;
17943;SDS011;9097;47.028;15.444;2022-10-16T13:26:49;8.52;;;5.32;;
17943;SDS011;9097;47.028;15.444;2022-10-16T13:29:59;12.48;;;6.22;;
17943;SDS011;9097;47.028;15.444;2022-10-16T13:33:03;13.07;;;6.28;;
17943;SDS011;9097;47.028;15.444;2022-10-16T13:36:06;10.45;;;5.72;;
17943;SDS011;9097;47.028;15.444;2022-10-16T13:39:13;10.93;;;6.53;;
17943;SDS011;9097;47.028;15.444;2022-10-16T13:42:20;10.38;;;4.80;;
17943;SDS011;9097;47.028;15.444;2022-10-16T13:45:25;9.40;;;5.28;;
17943;SDS011;9097;47.028;15.444;2022-10-16T13:48:28;10.55;;;5.95;;
17943;SDS011;9097;47.028;15.444;2022-10-16T13:51:31;8.40;;;5.55;;
17943;SDS011;9097;47.028;15.444;2022-10-16T13:54:36;11.52;;;5.80;;
17943;SDS011;9097;47.028;15.444;2022-10-16T13:57:39;11.45;;;6.32;;
17943;SDS011;9097;47.028;15.444;2022-10-16T14:00:52;9.57;;;5.38;;
17943;SDS011;9097;47.028;15.444;2022-10-16T14:04:00;12.35;;;6.32;;
17943;SDS011;9097;47.028;15.444;2022-10-16T14:07:03;14.10;;;6.05;;
17943;SDS011;9097;47.028;15.444;2022-10-16T14:10:19;13.27;;;6.57;;
17943;SDS011;9097;47.028;15.444;2022-10-16T14:13:26;13.07;;;6.60;;
17943;SDS011;9097;47.028;15.444;2022-10-16T14:16:30;10.77;;;6.50;;
17943;SDS011;9097;47.028;15.444;2022-10-16T14:19:35;15.38;;;7.15;;
17943;SDS011;9097;47.028;15.444;2022-10-16T14:22:40;11.07;;;7.22;;
17943;SDS011;9097;47.028;15.444;2022-10-16T14:25:48;10.90;;;6.40;;
17943;SDS011;9097;47.028;15.444;2022-10-16T14:29:01;10.45;;;5.30;;
17943;SDS011;9097;47.028;15.444;2022-10-16T14:32:06;16.45;;;8.35;;
17943;SDS011;9097;47.028;15.444;2022-10-16T14:35:21;14.63;;;7.60;;
17943;SDS011;9097;47.028;15.444;2022-10-16T14:38:26;9.70;;;5.78;;
17943;SDS011;9097;47.028;15.444;2022-10-16T14:41:31;13.30;;;7.80;;
17943;SDS011;9097;47.028;15.444;2022-10-16T14:44:34;12.07;;;6.65;;
17943;SDS011;9097;47.028;15.444;2022-10-16T14:47:38;10.43;;;6.70;;
17943;SDS011;9097;47.028;15.444;2022-10-16T14:50:50;13.75;;;7.13;;
17943;SDS011;9097;47.028;15.444;2022-10-16T14:53:52;13.77;;;6.15;;
17943;SDS011;9097;47.028;15.444;2022-10-16T14:56:57;9.95;;;6.03;;
17943;SDS011;9097;47.028;15.444;2022-10-16T15:00:00;13.63;;;7.82;;
17943;SDS011;9097;47.028;15.444;2022-10-16T15:03:03;12.60;;;7.13;;
17943;SDS011;9097;47.028;15.444;2022-10-16T15:06:08;12.68;;;7.60;;
17943;SDS011;9097;47.028;15.444;2022-10-16T15:09:12;16.55;;;7.82;;
17943;SDS011;9097;47.028;15.444;2022-10-16T15:12:16;10.55;;;7.00;;
17943;SDS011;9097;47.028;15.444;2022-10-16T15:15:26;17.13;;;7.70;;
17943;SDS011;9097;47.028;15.444;2022-10-16T15:18:32;11.32;;;7.13;;
17943;SDS011;9097;47.028;15.444;2022-10-16T15:21:40;14.63;;;7.35;;
17943;SDS011;9097;47.028;15.444;2022-10-16T15:24:43;15.48;;;8.20;;
17943;SDS011;9097;47.028;15.444;2022-10-16T15:27:49;14.43;;;8.68;;
17943;SDS011;9097;47.028;15.444;2022-10-16T15:30:52;16.52;;;8.02;;
17943;SDS011;9097;47.028;15.444;2022-10-16T15:33:55;15.68;;;8.15;;
17943;SDS011;9097;47.028;15.444;2022-10-16T15:37:04;14.10;;;8.05;;
17943;SDS011;9097;47.028;15.444;2022-10-16T15:40:07;13.43;;;7.78;;
17943;SDS011;9097;47.028;15.444;2022-10-16T15:43:12;18.33;;;8.75;;
17943;SDS011;9097;47.028;15.444;2022-10-16T15:46:17;17.05;;;8.30;;
17943;SDS011;9097;47.028;15.444;2022-10-16T15:49:20;14.55;;;8.18;;
17943;SDS011;9097;47.028;15.444;2022-10-16T15:52:22;18.50;;;8.38;;
17943;SDS011;9097;47.028;15.444;2022-10-16T15:55:25;16.38;;;8.30;;
17943;SDS011;9097;47.028;15.444;2022-10-16T15:58:29;24.38;;;7.75;;
17943;SDS011;9097;47.028;15.444;2022-10-16T16:01:32;17.27;;;8.13;;
17943;SDS011;9097;47.028;15.444;2022-10-16T16:04:36;16.08;;;8.82;;
17943;SDS011;9097;47.028;15.444;2022-10-16T16:07:39;15.48;;;8.13;;
17943;SDS011;9097;47.028;15.444;2022-10-16T16:10:41;17.20;;;7.93;;
17943;SDS011;9097;47.028;15.444;2022-10-16T16:13:45;15.95;;;8.85;;
17943;SDS011;9097;47.028;15.444;2022-10-16T16:16:48;18.08;;;9.32;;
17943;SDS011;9097;47.028;15.444;2022-10-16T16:19:51;17.17;;;8.98;;
17943;SDS011;9097;47.028;15.444;2022-10-16T16:22:54;19.42;;;9.82;;
17943;SDS011;9097;47.028;15.444;2022-10-16T16:26:07;20.38;;;10.30;;
17943;SDS011;9097;47.028;15.444;2022-10-16T16:29:14;20.35;;;9.27;;
17943;SDS011;9097;47.028;15.444;2022-10-16T16:32:17;16.08;;;8.95;;
17943;SDS011;9097;47.028;15.444;2022-10-16T16:35:20;17.00;;;9.63;;
17943;SDS011;9097;47.028;15.444;2022-10-16T16:38:22;13.23;;;7.43;;
17943;SDS011;9097;47.028;15.444;2022-10-16T16:41:25;21.95;;;8.50;;
17943;SDS011;9097;47.028;15.444;2022-10-16T16:44:31;15.50;;;7.90;;
17943;SDS011;9097;47.028;15.444;2022-10-16T16:47:37;17.60;;;9.07;;
17943;SDS011;9097;47.028;15.444;2022-10-16T16:50:39;16.75;;;8.27;;
17943;SDS011;9097;47.028;15.444;2022-10-16T16:53:42;15.30;;;8.05;;
17943;SDS011;9097;47.028;15.444;2022-10-16T16:56:45;18.45;;;8.57;;
17943;SDS011;9097;47.028;15.444;2022-10-16T16:59:51;20.02;;;9.25;;
17943;SDS011;9097;47.028;15.444;2022-10-16T17:02:53;17.85;;;9.10;;
17943;SDS011;9097;47.028;15.444;2022-10-16T17:05:57;19.73;;;9.48;;
17943;SDS011;9097;47.028;15.444;2022-10-16T17:09:00;25.85;;;9.98;;
17943;SDS011;9097;47.028;15.444;2022-10-16T17:12:04;20.27;;;9.63;;
17943;SDS011;9097;47.028;15.444;2022-10-16T17:15:09;18.63;;;9.55;;
17943;SDS011;9097;47.028;15.444;2022-10-16T17:18:12;19.55;;;10.40;;
17943;SDS011;9097;47.028;15.444;2022-10-16T17:21:14;22.50;;;9.75;;
17943;SDS011;9097;47.028;15.444;2022-10-16T17:24:17;19.13;;;9.88;;
17943;SDS011;9097;47.028;15.444;2022-10-16T17:27:20;21.98;;;11.30;;
17943;SDS011;9097;47.028;15.444;2022-10-16T17:30:24;20.50;;;10.73;;
17943;SDS011;9097;47.028;15.444;2022-10-16T17:33:27;23.55;;;11.23;;
17943;SDS011;9097;47.028;15.444;2022-10-16T17:36:32;23.75;;;10.40;;
17943;SDS011;9097;47.028;15.444;2022-10-16T17:39:36;18.92;;;10.50;;
17943;SDS011;9097;47.028;15.444;2022-10-16T17:42:38;26.25;;;10.82;;
17943;SDS011;9097;47.028;15.444;2022-10-16T17:45:44;21.92;;;10.30;;
17943;SDS011;9097;47.028;15.444;2022-10-16T17:48:48;22.33;;;11.80;;
17943;SDS011;9097;47.028;15.444;2022-10-16T17:51:54;19.55;;;11.10;;
17943;SDS011;9097;47.028;15.444;2022-10-16T17:54:59;21.45;;;10.32;;
17943;SDS011;9097;47.028;15.444;2022-10-16T17:58:02;26.23;;;12.15;;
17943;SDS011;9097;47.028;15.444;2022-10-16T18:01:12;24.35;;;11.65;;
17943;SDS011;9097;47.028;15.444;2022-10-16T18:04:16;22.42;;;10.82;;
17943;SDS011;9097;47.028;15.444;2022-10-16T18:07:19;21.10;;;10.40;;
17943;SDS011;9097;47.028;15.444;2022-10-16T18:10:23;24.60;;;11.70;;
17943;SDS011;9097;47.028;15.444;2022-10-16T18:13:26;20.80;;;9.82;;
17943;SDS011;9097;47.028;15.444;2022-10-16T18:16:30;25.25;;;11.93;;
17943;SDS011;9097;47.028;15.444;2022-10-16T18:19:33;26.35;;;10.98;;